Time;durP1;ratioP1;P1;durP2;ratioP2;P2;SDS_P1;SDS_P2;PMS_P1;PMS_P2;Temp;Humidity;BMP_temperature;BMP_pressure;BME280_temperature;BME280_humidity;BME280_pressure;Samples;Min_cycle;Max_cycle;Signal;HPM_P1;HPM_P2
2023/10/21 00:02:26;;;;;;;51.90;27.63;;;;;;;7.96;100.00;98464.78;4916416;29;20062;-77
2023/10/21 00:04:54;;;;;;;50.40;27.33;;;;;;;7.97;100.00;98463.88;4910400;28;20054;-77
2023/10/21 00:07:21;;;;;;;53.17;29.35;;;;;;;8.00;100.00;98473.44;4948333;29;20043;-77
2023/10/21 00:09:49;;;;;;;50.63;28.08;;;;;;;8.01;100.00;98469.91;4906897;29;20055;-77
2023/10/21 00:12:16;;;;;;;44.38;26.45;;;;;;;8.06;100.00;98469.81;4907858;28;21624;-77
2023/10/21 00:14:43;;;;;;;42.83;25.75;;;;;;;8.09;100.00;98488.09;4931511;29;20051;-77
2023/10/21 00:17:11;;;;;;;42.75;27.35;;;;;;;8.09;100.00;98481.09;4912691;29;20051;-77
2023/10/21 00:19:38;;;;;;;51.22;28.42;;;;;;;8.12;100.00;98485.41;4892684;29;20043;-77
2023/10/21 00:22:05;;;;;;;56.05;29.55;;;;;;;8.15;100.00;98485.34;4927191;29;20051;-78
2023/10/21 00:24:33;;;;;;;46.88;28.50;;;;;;;8.18;100.00;98490.47;4932178;29;20055;-77
2023/10/21 00:27:01;;;;;;;54.47;30.52;;;;;;;8.21;100.00;98495.66;4891874;28;20047;-77
2023/10/21 00:29:29;;;;;;;40.35;26.17;;;;;;;8.23;100.00;98500.88;4891122;29;20058;-77
2023/10/21 00:31:57;;;;;;;50.38;28.92;;;;;;;8.23;100.00;98508.75;4912577;29;20047;-77
2023/10/21 00:34:24;;;;;;;46.58;27.35;;;;;;;8.24;100.00;98507.84;4874988;29;20421;-77
2023/10/21 00:36:52;;;;;;;44.30;28.63;;;;;;;8.23;100.00;98509.59;4929335;29;20535;-77
2023/10/21 00:39:20;;;;;;;54.42;30.77;;;;;;;8.27;100.00;98521.75;4924904;29;20044;-76
2023/10/21 00:41:47;;;;;;;46.85;29.83;;;;;;;8.30;100.00;98516.44;4921060;29;20051;-77
2023/10/21 00:44:16;;;;;;;47.63;28.85;;;;;;;8.33;100.00;98520.72;4918257;29;20051;-77
2023/10/21 00:46:44;;;;;;;49.58;29.15;;;;;;;8.35;100.00;98524.19;4916431;29;20051;-78
2023/10/21 00:49:13;;;;;;;51.25;30.38;;;;;;;8.38;100.00;98526.75;4892513;29;20398;-78
2023/10/21 00:51:40;;;;;;;61.33;31.92;;;;;;;8.39;100.00;98520.56;4924630;29;20433;-78
2023/10/21 00:54:09;;;;;;;60.58;32.30;;;;;;;8.42;100.00;98531.03;4925856;29;20051;-77
2023/10/21 00:56:36;;;;;;;66.10;33.92;;;;;;;8.44;100.00;98536.25;4898417;29;20055;-77
2023/10/21 00:59:04;;;;;;;63.55;32.90;;;;;;;8.47;100.00;98528.28;4902591;29;20364;-78
2023/10/21 01:01:34;;;;;;;56.35;31.58;;;;;;;8.47;100.00;98538.78;4932665;29;20436;-77
2023/10/21 01:04:03;;;;;;;70.45;33.65;;;;;;;8.48;100.00;98536.13;4919592;29;20051;-77
2023/10/21 01:06:32;;;;;;;65.22;31.92;;;;;;;8.50;100.00;98539.56;4890513;29;20058;-77
2023/10/21 01:09:01;;;;;;;65.03;32.53;;;;;;;8.51;100.00;98541.31;4911107;29;20054;-77
2023/10/21 01:11:29;;;;;;;66.32;33.25;;;;;;;8.54;100.00;98549.13;4917513;29;20051;-77
2023/10/21 01:13:56;;;;;;;76.35;34.30;;;;;;;8.56;100.00;98549.94;4897621;29;20497;-77
2023/10/21 01:16:24;;;;;;;61.67;32.17;;;;;;;8.59;100.00;98551.59;4907757;29;20048;-77
2023/10/21 01:18:51;;;;;;;58.60;30.90;;;;;;;8.61;100.00;98552.44;4907139;29;20071;-78
2023/10/21 01:21:19;;;;;;;69.15;32.65;;;;;;;8.64;100.00;98564.59;4860209;29;20047;-78
2023/10/21 01:23:46;;;;;;;59.88;32.13;;;;;;;8.65;100.00;98563.72;4911683;29;20059;-78
2023/10/21 01:26:13;;;;;;;70.05;33.67;;;;;;;8.66;100.00;98566.31;4891867;29;20457;-77
2023/10/21 01:28:41;;;;;;;96.28;37.08;;;;;;;8.68;100.00;98567.13;4881464;29;20056;-77
2023/10/21 01:31:08;;;;;;;79.78;35.30;;;;;;;8.69;100.00;98566.22;4897959;29;20774;-78
2023/10/21 01:33:35;;;;;;;69.22;35.20;;;;;;;8.69;100.00;98575.84;4911079;29;20070;-77
2023/10/21 01:36:03;;;;;;;83.03;36.90;;;;;;;8.70;100.00;98585.47;4856024;29;20051;-77
2023/10/21 01:38:31;;;;;;;77.28;36.95;;;;;;;8.71;100.00;98584.56;4911426;29;20052;-77
2023/10/21 01:40:58;;;;;;;79.38;36.97;;;;;;;8.70;100.00;98583.69;4908215;29;20533;-77
2023/10/21 01:43:28;;;;;;;78.70;37.58;;;;;;;8.70;100.00;98582.84;4883779;29;20059;-77
2023/10/21 01:45:55;;;;;;;81.57;36.92;;;;;;;8.70;100.00;98590.72;4879618;29;20513;-77
2023/10/21 01:48:23;;;;;;;83.72;35.75;;;;;;;8.68;100.00;98589.91;4910136;29;20063;-77
2023/10/21 01:50:58;;;;;;;111.43;42.38;;;;;;;8.65;100.00;98585.56;4871915;29;20055;-76
2023/10/21 01:53:26;;;;;;;114.45;42.53;;;;;;;8.63;100.00;98586.53;4921390;29;20043;-76
2023/10/21 01:56:03;;;;;;;146.27;46.67;;;;;;;8.64;100.00;98603.97;4908983;29;20048;-76
2023/10/21 01:58:31;;;;;;;130.38;44.58;;;;;;;8.64;100.00;98598.72;4894735;29;20052;-77
2023/10/21 02:01:07;;;;;;;147.80;47.08;;;;;;;8.62;100.00;98603.16;4888290;29;20048;-76
2023/10/21 02:03:35;;;;;;;200.80;51.17;;;;;;;8.62;100.00;98601.41;4911487;29;20055;-77
2023/10/21 02:06:07;;;;;;;198.85;48.55;;;;;;;8.61;100.00;98599.69;4855856;29;20048;-76
2023/10/21 02:08:35;;;;;;;200.73;47.38;;;;;;;8.61;100.00;98620.69;4911119;29;20172;-77
2023/10/21 02:11:02;;;;;;;269.23;54.13;;;;;;;8.59;100.00;98628.59;4908598;29;20047;-78
2023/10/21 02:13:29;;;;;;;178.15;44.60;;;;;;;8.59;100.00;98628.59;4896756;29;20059;-77
2023/10/21 02:15:58;;;;;;;203.90;44.13;;;;;;;8.59;100.00;98623.34;4890374;29;20056;-76
2023/10/21 02:18:25;;;;;;;370.83;57.50;;;;;;;8.58;100.00;98623.38;4901886;29;20414;-78
2023/10/21 02:20:53;;;;;;;212.93;40.67;;;;;;;8.58;100.00;98629.50;4895141;29;20059;-76
2023/10/21 02:23:20;;;;;;;204.38;38.63;;;;;;;8.58;100.00;98637.38;4838699;29;20063;-77
2023/10/21 02:25:58;;;;;;;265.55;42.38;;;;;;;8.58;100.00;98640.00;4908017;29;20043;-76
2023/10/21 02:28:29;;;;;;;180.93;36.75;;;;;;;8.59;100.00;98643.50;4912661;29;20051;-77
2023/10/21 02:30:57;;;;;;;126.88;32.65;;;;;;;8.59;100.00;98644.34;4916553;29;20043;-76
2023/10/21 02:33:24;;;;;;;184.32;39.38;;;;;;;8.61;100.00;98646.94;4901389;29;20081;-76
2023/10/21 02:35:53;;;;;;;187.45;35.75;;;;;;;8.63;100.00;98644.28;4909868;29;20048;-77
2023/10/21 02:38:22;;;;;;;226.85;40.78;;;;;;;8.64;100.00;98646.00;4853685;29;20055;-77
2023/10/21 02:40:49;;;;;;;195.80;39.58;;;;;;;8.65;100.00;98652.97;4910690;29;20043;-76
2023/10/21 02:43:17;;;;;;;205.77;41.78;;;;;;;8.67;100.00;98648.56;4896883;29;20802;-77
2023/10/21 02:45:45;;;;;;;208.85;39.95;;;;;;;8.65;100.00;98661.72;4904313;29;20059;-76
2023/10/21 02:48:12;;;;;;;172.50;37.72;;;;;;;8.67;100.00;98659.06;4887962;29;20081;-77
2023/10/21 02:50:40;;;;;;;149.98;36.22;;;;;;;8.68;100.00;98671.31;4916405;29;20082;-77
2023/10/21 02:53:08;;;;;;;189.02;38.47;;;;;;;8.69;100.00;98671.25;4870194;29;20059;-76
2023/10/21 02:55:36;;;;;;;171.07;34.05;;;;;;;8.70;100.00;98680.00;4910934;29;20409;-77
2023/10/21 02:58:04;;;;;;;191.30;38.85;;;;;;;8.70;100.00;98678.22;4880216;29;20059;-76
2023/10/21 03:00:31;;;;;;;225.55;37.08;;;;;;;8.71;100.00;98681.72;4910439;29;20056;-77
2023/10/21 03:02:59;;;;;;;213.35;39.40;;;;;;;8.72;100.00;98691.31;4909202;29;20114;-76
2023/10/21 03:05:27;;;;;;;198.63;37.65;;;;;;;8.72;100.00;98696.56;4887039;29;20062;-78
2023/10/21 03:07:54;;;;;;;188.57;34.53;;;;;;;8.74;100.00;98694.78;4883244;29;20060;-77
2023/10/21 03:10:22;;;;;;;228.27;46.85;;;;;;;8.75;100.00;98692.13;4852406;29;20530;-76
2023/10/21 03:12:50;;;;;;;210.32;46.03;;;;;;;8.76;100.00;98691.22;4904966;29;20040;-77
2023/10/21 03:15:18;;;;;;;162.50;38.95;;;;;;;8.78;100.00;98688.53;4916207;29;20043;-77
2023/10/21 03:17:45;;;;;;;162.68;40.95;;;;;;;8.78;100.00;98699.91;4891411;28;20425;-77
2023/10/21 03:20:13;;;;;;;254.45;46.03;;;;;;;8.80;100.00;98696.41;4900028;29;20047;-77
2023/10/21 03:22:40;;;;;;;280.80;48.88;;;;;;;8.80;100.00;98705.13;4896725;29;20778;-77
2023/10/21 03:25:08;;;;;;;225.02;39.13;;;;;;;8.81;100.00;98695.47;4863590;29;20054;-77
2023/10/21 03:27:37;;;;;;;182.10;37.80;;;;;;;8.83;100.00;98701.56;4928265;29;20705;-76
2023/10/21 03:30:07;;;;;;;186.55;38.33;;;;;;;8.85;100.00;98702.41;4929803;29;20051;-77
2023/10/21 03:32:35;;;;;;;192.52;39.30;;;;;;;8.85;100.00;98708.50;4904404;29;20501;-77
2023/10/21 03:35:04;;;;;;;214.43;39.47;;;;;;;8.86;100.00;98712.84;4919584;29;20055;-77
2023/10/21 03:37:32;;;;;;;191.27;39.45;;;;;;;8.87;100.00;98711.97;4915158;29;20058;-77
2023/10/21 03:40:05;;;;;;;201.10;40.17;;;;;;;8.89;100.00;98706.69;4887274;28;20056;-77
2023/10/21 03:42:32;;;;;;;212.60;41.67;;;;;;;8.89;100.00;98715.41;4901460;29;20043;-77
2023/10/21 03:45:00;;;;;;;154.75;36.78;;;;;;;8.91;100.00;98718.00;4925450;29;20047;-77
2023/10/21 03:47:27;;;;;;;212.70;39.30;;;;;;;8.92;100.00;98719.72;4931731;28;20051;-78
2023/10/21 03:49:54;;;;;;;205.82;40.10;;;;;;;8.93;100.00;98721.47;4908386;29;20048;-77
2023/10/21 03:52:22;;;;;;;227.85;41.03;;;;;;;8.94;100.00;98728.44;4932610;28;20039;-77
2023/10/21 03:54:49;;;;;;;160.90;35.85;;;;;;;8.95;100.00;98727.53;4883938;29;20782;-77
2023/10/21 03:57:16;;;;;;;177.75;35.72;;;;;;;8.96;100.00;98730.13;4910047;28;20070;-77
2023/10/21 03:59:44;;;;;;;255.48;41.53;;;;;;;8.95;100.00;98730.16;4914791;29;20054;-77
2023/10/21 04:02:11;;;;;;;279.88;45.33;;;;;;;8.95;100.00;98735.41;4892106;29;20051;-76
2023/10/21 04:04:39;;;;;;;187.45;38.92;;;;;;;8.95;100.00;98732.78;4894808;28;20052;-77
2023/10/21 04:07:06;;;;;;;217.90;39.42;;;;;;;8.95;100.00;98733.66;4943717;29;20812;-77
2023/10/21 04:09:34;;;;;;;257.40;42.25;;;;;;;8.94;100.00;98742.44;4903872;29;20551;-77
2023/10/21 04:12:01;;;;;;;212.32;38.53;;;;;;;8.95;100.00;98743.31;4858680;29;20052;-77
2023/10/21 04:14:29;;;;;;;198.52;36.97;;;;;;;8.95;100.00;98741.53;4901783;29;20557;-77
2023/10/21 04:16:56;;;;;;;300.80;44.25;;;;;;;8.95;100.00;98757.28;4928222;29;20071;-77
2023/10/21 04:19:23;;;;;;;210.40;38.70;;;;;;;8.94;100.00;98752.06;4918591;29;20056;-78
2023/10/21 04:21:51;;;;;;;204.35;39.72;;;;;;;8.94;100.00;98760.84;4895805;29;20048;-76
2023/10/21 04:24:20;;;;;;;242.75;41.17;;;;;;;8.94;100.00;98766.09;4900802;29;20505;-77
2023/10/21 04:26:47;;;;;;;160.32;35.38;;;;;;;8.94;100.00;98766.09;4867155;29;20062;-77
2023/10/21 04:29:16;;;;;;;217.30;38.78;;;;;;;8.93;100.00;98759.09;4889881;29;20082;-77
2023/10/21 04:31:43;;;;;;;157.65;36.13;;;;;;;8.93;100.00;98763.50;4894305;29;20039;-77
2023/10/21 04:34:10;;;;;;;137.10;32.97;;;;;;;8.93;100.00;98768.75;4916610;29;20500;-78
2023/10/21 04:36:38;;;;;;;122.88;33.80;;;;;;;8.93;100.00;98769.59;4917592;29;20516;-76
2023/10/21 04:39:07;;;;;;;113.00;32.25;;;;;;;8.93;100.00;98772.22;4893266;29;20063;-77
2023/10/21 04:41:34;;;;;;;141.73;33.95;;;;;;;8.94;100.00;98781.84;4908334;29;20047;-77
2023/10/21 04:44:02;;;;;;;121.55;31.60;;;;;;;8.93;100.00;98785.34;4860835;29;20051;-78
2023/10/21 04:46:31;;;;;;;124.10;33.00;;;;;;;8.92;100.00;98781.03;4909285;29;20051;-77
2023/10/21 04:48:59;;;;;;;112.70;32.17;;;;;;;8.92;100.00;98788.00;4896482;29;20063;-77
2023/10/21 04:51:27;;;;;;;114.13;31.83;;;;;;;8.91;100.00;98788.94;4897935;29;20052;-78
2023/10/21 04:53:54;;;;;;;97.07;35.45;;;;;;;8.91;100.00;98791.56;4912030;29;20071;-77
2023/10/21 04:56:21;;;;;;;74.90;32.38;;;;;;;8.89;100.00;98793.34;4895698;29;20055;-77
2023/10/21 04:58:49;;;;;;;94.05;34.05;;;;;;;8.89;100.00;98803.88;4856584;29;20058;-77
2023/10/21 05:01:17;;;;;;;72.65;32.42;;;;;;;8.87;100.00;98798.66;4876411;29;20047;-77
2023/10/21 05:03:44;;;;;;;96.85;34.28;;;;;;;8.85;100.00;98797.81;4873152;29;20387;-78
2023/10/21 05:06:12;;;;;;;77.30;30.52;;;;;;;8.84;100.00;98803.94;4907576;29;20490;-76
2023/10/21 05:08:39;;;;;;;68.60;29.15;;;;;;;8.83;100.00;98794.38;4885781;29;20077;-77
2023/10/21 05:11:07;;;;;;;72.65;31.05;;;;;;;8.83;100.00;98806.59;4886553;29;20048;-77
2023/10/21 05:13:35;;;;;;;68.82;31.45;;;;;;;8.81;100.00;98811.91;4874824;28;20055;-77
2023/10/21 05:16:02;;;;;;;69.03;30.27;;;;;;;8.80;100.00;98823.31;4919093;29;20074;-77
2023/10/21 05:18:29;;;;;;;71.57;31.05;;;;;;;8.77;100.00;98821.63;4935521;28;21069;-77
2023/10/21 05:20:57;;;;;;;66.50;29.67;;;;;;;8.76;100.00;98824.28;4915471;29;20059;-78
2023/10/21 05:23:24;;;;;;;77.25;32.05;;;;;;;8.75;100.00;98831.31;4915502;29;20047;-76
2023/10/21 05:25:52;;;;;;;59.92;29.50;;;;;;;8.74;100.00;98829.56;4889723;29;20047;-77
2023/10/21 05:28:19;;;;;;;71.03;31.42;;;;;;;8.74;100.00;98826.06;4876757;28;20250;-77
2023/10/21 05:30:47;;;;;;;83.05;33.42;;;;;;;8.71;100.00;98831.38;4912920;28;20078;-77
2023/10/21 05:33:14;;;;;;;85.75;32.88;;;;;;;8.70;100.00;98834.91;4929644;29;20043;-77
2023/10/21 05:35:43;;;;;;;116.90;37.55;;;;;;;8.68;100.00;98839.34;4928710;29;20504;-76
2023/10/21 05:38:10;;;;;;;70.18;30.60;;;;;;;8.66;100.00;98838.47;4899179;29;20170;-77
2023/10/21 05:40:38;;;;;;;81.28;33.50;;;;;;;8.64;100.00;98850.78;4885459;28;20059;-77
2023/10/21 05:43:05;;;;;;;69.72;31.42;;;;;;;8.63;100.00;98865.69;4916770;29;20059;-76
2023/10/21 05:45:33;;;;;;;86.75;34.30;;;;;;;8.62;100.00;98869.22;4869523;29;20064;-78
2023/10/21 05:48:01;;;;;;;64.20;31.38;;;;;;;8.61;100.00;98861.38;4916804;29;20408;-77
2023/10/21 05:50:30;;;;;;;73.80;31.95;;;;;;;8.59;100.00;98871.91;4927480;29;20074;-76
2023/10/21 05:52:57;;;;;;;55.88;29.23;;;;;;;8.59;100.00;98879.78;4930855;29;20043;-77
2023/10/21 05:55:25;;;;;;;56.45;29.90;;;;;;;8.59;100.00;98885.03;4915051;29;20047;-77
2023/10/21 05:57:53;;;;;;;57.28;29.73;;;;;;;8.58;100.00;98884.16;4938742;28;20047;-77
2023/10/21 06:00:20;;;;;;;53.22;28.55;;;;;;;8.59;100.00;98891.13;4880177;29;20622;-77
2023/10/21 06:02:48;;;;;;;42.53;25.55;;;;;;;8.58;100.00;98899.91;4903102;29;20051;-78
2023/10/21 06:05:15;;;;;;;44.22;24.83;;;;;;;8.59;100.00;98900.78;4884453;29;20417;-77
2023/10/21 06:07:43;;;;;;;51.88;24.92;;;;;;;8.58;100.00;98905.16;4929103;29;20055;-77
2023/10/21 06:10:10;;;;;;;41.00;19.38;;;;;;;8.59;100.00;98916.53;4903245;29;20050;-77
2023/10/21 06:12:39;;;;;;;41.03;18.80;;;;;;;8.59;100.00;98920.00;4903801;28;20051;-76
2023/10/21 06:15:07;;;;;;;48.13;20.70;;;;;;;8.61;100.00;98919.13;4922078;28;20055;-77
2023/10/21 06:17:36;;;;;;;39.28;19.52;;;;;;;8.61;100.00;98927.88;4894775;29;20052;-77
2023/10/21 06:20:03;;;;;;;38.67;19.17;;;;;;;8.62;100.00;98926.09;4924386;29;20047;-78
2023/10/21 06:22:30;;;;;;;42.20;18.73;;;;;;;8.62;100.00;98931.34;4914508;29;20057;-77
2023/10/21 06:24:59;;;;;;;42.42;19.15;;;;;;;8.63;100.00;98938.34;4917474;29;20040;-77
2023/10/21 06:27:27;;;;;;;40.22;19.67;;;;;;;8.63;100.00;98954.94;4913085;28;20063;-77
2023/10/21 06:29:55;;;;;;;42.20;18.67;;;;;;;8.64;100.00;98961.06;4934073;29;20051;-77
2023/10/21 06:32:22;;;;;;;39.05;18.55;;;;;;;8.65;100.00;98960.19;4897212;28;20047;-77
2023/10/21 06:34:50;;;;;;;33.15;17.73;;;;;;;8.65;100.00;98960.19;4917215;29;20047;-77
2023/10/21 06:37:17;;;;;;;31.92;16.58;;;;;;;8.65;100.00;98962.81;4899493;29;20055;-77
2023/10/21 06:39:44;;;;;;;31.05;17.50;;;;;;;8.64;100.00;98961.94;4934045;29;20051;-77
2023/10/21 06:42:15;;;;;;;36.38;18.35;;;;;;;8.66;100.00;98969.78;4921993;29;20055;-77
2023/10/21 06:44:43;;;;;;;23.95;15.75;;;;;;;8.67;100.00;98966.25;4925060;29;20054;-77
2023/10/21 06:47:10;;;;;;;30.35;19.50;;;;;;;8.67;100.00;98979.38;4874029;29;20055;-77
2023/10/21 06:49:38;;;;;;;34.30;17.88;;;;;;;8.68;100.00;98973.25;4931080;28;20082;-78
2023/10/21 06:52:05;;;;;;;36.63;18.23;;;;;;;8.68;100.00;98983.75;4917174;29;20512;-77
2023/10/21 06:54:32;;;;;;;30.50;18.17;;;;;;;8.69;100.00;98993.34;4947756;29;20058;-77
2023/10/21 06:57:01;;;;;;;30.55;17.60;;;;;;;8.69;100.00;98985.47;4920026;28;20047;-77
2023/10/21 06:59:32;;;;;;;33.90;18.63;;;;;;;8.71;100.00;98992.41;4910195;29;20078;-77
2023/10/21 07:01:59;;;;;;;31.45;16.00;;;;;;;8.73;100.00;98997.66;4875803;29;20063;-77
2023/10/21 07:04:27;;;;;;;30.00;16.27;;;;;;;8.75;100.00;98991.50;4917805;28;20584;-77
2023/10/21 07:06:55;;;;;;;30.42;16.42;;;;;;;8.78;100.00;98995.81;4947536;29;20500;-78
2023/10/21 07:09:23;;;;;;;29.05;16.55;;;;;;;8.80;100.00;99003.66;4914857;29;20062;-76
2023/10/21 07:11:50;;;;;;;27.50;14.65;;;;;;;8.83;100.00;99009.72;4916536;29;20054;-77
2023/10/21 07:14:17;;;;;;;31.42;15.65;;;;;;;8.86;100.00;99017.53;4884753;28;20043;-77
2023/10/21 07:16:45;;;;;;;26.92;14.73;;;;;;;8.90;100.00;99029.75;4882556;29;20050;-77
2023/10/21 07:19:12;;;;;;;33.92;15.95;;;;;;;8.92;100.00;99017.44;4899189;29;20055;-77
2023/10/21 07:21:40;;;;;;;33.70;16.50;;;;;;;8.95;100.00;99030.50;4902995;29;20047;-77
2023/10/21 07:24:08;;;;;;;29.85;15.63;;;;;;;8.99;100.00;99031.31;4914188;28;20043;-77
2023/10/21 07:26:35;;;;;;;33.28;15.40;;;;;;;9.03;100.00;99034.75;4931452;29;20580;-77
2023/10/21 07:29:03;;;;;;;26.23;14.93;;;;;;;9.05;100.00;99041.69;4925482;28;20043;-77
2023/10/21 07:31:30;;;;;;;28.92;14.65;;;;;;;9.08;100.00;99038.16;4923804;29;20059;-76
2023/10/21 07:33:58;;;;;;;31.23;15.00;;;;;;;9.12;100.00;99050.31;4867734;29;20051;-77
2023/10/21 07:36:25;;;;;;;30.48;16.10;;;;;;;9.16;100.00;99055.47;4919281;28;20055;-77
2023/10/21 07:38:54;;;;;;;29.20;14.75;;;;;;;9.20;100.00;99053.66;4916050;29;20055;-76
2023/10/21 07:41:23;;;;;;;31.80;14.88;;;;;;;9.22;100.00;99065.00;4926850;29;20056;-78
2023/10/21 07:43:50;;;;;;;27.45;13.75;;;;;;;9.27;100.00;99071.03;4904143;28;20069;-77
2023/10/21 07:46:17;;;;;;;21.38;13.00;;;;;;;9.30;100.00;99078.00;4932916;28;20054;-77
2023/10/21 07:48:45;;;;;;;23.27;13.57;;;;;;;9.34;100.00;99079.69;4878193;29;20497;-76
2023/10/21 07:51:12;;;;;;;27.25;13.93;;;;;;;9.37;100.00;99079.59;4914424;29;20035;-76
2023/10/21 07:53:40;;;;;;;23.40;13.40;;;;;;;9.41;100.00;99080.41;4905342;29;20056;-78
2023/10/21 07:56:07;;;;;;;22.33;13.10;;;;;;;9.44;100.00;99080.38;4911632;29;20075;-77
2023/10/21 07:58:35;;;;;;;23.40;13.40;;;;;;;9.47;100.00;99082.91;4900470;29;20062;-77
2023/10/21 08:01:03;;;;;;;28.98;14.25;;;;;;;9.50;100.00;99085.50;4886434;29;20048;-77
2023/10/21 08:03:30;;;;;;;23.05;12.63;;;;;;;9.52;100.00;99087.19;4943285;29;20465;-77
2023/10/21 08:05:57;;;;;;;22.48;13.38;;;;;;;9.56;100.00;99087.97;4906951;28;20056;-76
2023/10/21 08:08:28;;;;;;;22.10;12.73;;;;;;;9.57;100.00;99101.09;4916161;29;20059;-77
2023/10/21 08:11:00;;;;;;;22.88;12.25;;;;;;;9.62;100.00;99100.13;4940650;29;20058;-78
2023/10/21 08:13:27;;;;;;;28.02;12.98;;;;;;;9.64;100.00;99108.88;4936055;28;20117;-77
2023/10/21 08:15:56;;;;;;;21.38;12.80;;;;;;;9.68;100.00;99102.66;4885395;28;20058;-77
2023/10/21 08:18:23;;;;;;;22.13;12.85;;;;;;;9.71;100.00;99110.47;4903340;28;20465;-77
2023/10/21 08:20:51;;;;;;;23.38;13.63;;;;;;;9.76;100.00;99100.72;4902563;28;20492;-76
2023/10/21 08:23:18;;;;;;;23.80;12.70;;;;;;;9.82;100.00;99102.34;4919485;28;20899;-76
2023/10/21 08:25:46;;;;;;;24.10;11.93;;;;;;;9.86;100.00;99109.28;4914177;29;20051;-77
2023/10/21 08:28:13;;;;;;;18.67;11.60;;;;;;;9.91;100.00;99117.94;4913058;29;20536;-77
2023/10/21 08:30:40;;;;;;;22.73;11.77;;;;;;;9.95;100.00;99116.97;4903029;28;20067;-79
2023/10/21 08:33:08;;;;;;;19.67;11.68;;;;;;;9.99;100.00;99116.00;4881458;28;20056;-77
2023/10/21 08:35:36;;;;;;;22.95;13.20;;;;;;;10.03;100.00;99122.06;4873206;29;20055;-77
2023/10/21 08:38:04;;;;;;;22.35;12.43;;;;;;;10.08;100.00;99120.22;4891924;28;20063;-77
2023/10/21 08:40:37;;;;;;;20.38;12.60;;;;;;;10.14;100.00;99134.09;4931609;29;20062;-78
2023/10/21 08:43:05;;;;;;;28.02;15.55;;;;;;;10.18;100.00;99134.88;4926695;29;20051;-78
2023/10/21 08:45:34;;;;;;;23.88;14.57;;;;;;;10.23;100.00;99135.66;4929123;29;20966;-77
2023/10/21 08:48:08;;;;;;;29.10;16.00;;;;;;;10.28;100.00;99136.41;4904162;29;20136;-77
2023/10/21 08:50:39;;;;;;;36.42;22.25;;;;;;;10.34;100.00;99138.94;4876866;29;20306;-78
2023/10/21 08:53:11;;;;;;;28.58;17.52;;;;;;;10.41;100.00;99144.06;4919993;28;20806;-77
2023/10/21 08:55:39;;;;;;;20.60;13.10;;;;;;;10.45;100.00;99146.59;4931292;29;20059;-77
2023/10/21 08:58:06;;;;;;;34.30;15.02;;;;;;;10.50;100.00;99149.97;4930347;29;20055;-77
2023/10/21 09:00:34;;;;;;;20.05;11.35;;;;;;;10.58;100.00;99155.03;4927412;29;20058;-76
2023/10/21 09:03:03;;;;;;;20.98;12.40;;;;;;;10.65;100.00;99153.16;4921544;28;20536;-77
2023/10/21 09:05:34;;;;;;;23.52;14.50;;;;;;;10.73;100.00;99159.09;4938238;28;20512;-77
2023/10/21 09:08:02;;;;;;;21.65;12.18;;;;;;;10.81;100.00;99164.16;4857318;29;20055;-77
2023/10/21 09:10:32;;;;;;;17.98;12.85;;;;;;;10.86;100.00;99160.50;4911391;29;20070;-77
2023/10/21 09:13:13;;;;;;;20.85;13.90;;;;;;;10.97;100.00;99164.66;4884360;29;20062;-77
2023/10/21 09:15:40;;;;;;;20.60;12.30;;;;;;;11.04;100.00;99155.66;4932954;28;20509;-78
2023/10/21 09:18:13;;;;;;;31.83;12.10;;;;;;;11.14;100.00;99166.88;4906093;28;20063;-77
2023/10/21 09:20:47;;;;;;;16.50;10.93;;;;;;;11.23;100.00;99167.50;4915813;29;20398;-77
2023/10/21 09:23:17;;;;;;;22.15;10.15;;;;;;;11.30;100.00;99169.06;4870510;29;20055;-77
2023/10/21 09:25:50;;;;;;;15.80;10.13;;;;;;;11.42;100.00;99172.28;4905072;29;20047;-77
2023/10/21 09:28:22;;;;;;;21.15;10.63;;;;;;;11.51;100.00;99177.28;4912764;29;20440;-78
2023/10/21 09:30:57;;;;;;;18.58;12.10;;;;;;;11.63;100.00;99181.38;4915348;29;20051;-78
2023/10/21 09:33:26;;;;;;;17.92;11.25;;;;;;;11.73;100.00;99189.91;4880471;29;20059;-79
2023/10/21 09:36:04;;;;;;;18.08;12.75;;;;;;;11.83;100.00;99186.06;4931905;28;20051;-77
2023/10/21 09:38:54;;;;;;;18.30;10.68;;;;;;;11.95;100.00;99188.41;4869559;29;20051;-77
2023/10/21 09:41:23;;;;;;;18.75;11.23;;;;;;;12.09;100.00;99196.78;4918625;29;20051;-77
2023/10/21 09:43:52;;;;;;;20.88;11.98;;;;;;;12.25;100.00;99193.72;4919189;29;20048;-77
2023/10/21 09:46:25;;;;;;;18.60;11.07;;;;;;;12.39;100.00;99194.13;4912362;29;20516;-78
2023/10/21 09:48:56;;;;;;;14.95;10.68;;;;;;;12.57;100.00;99205.03;4910147;28;20807;-77
2023/10/21 09:51:28;;;;;;;13.57;9.93;;;;;;;12.67;100.00;99201.22;4941848;28;20043;-77
2023/10/21 09:54:00;;;;;;;12.77;9.27;;;;;;;12.80;100.00;99205.19;4909262;28;20043;-78
2023/10/21 09:56:28;;;;;;;15.20;9.82;;;;;;;12.90;100.00;99200.47;4922283;29;20046;-78
2023/10/21 09:58:57;;;;;;;12.35;8.65;;;;;;;13.00;100.00;99207.16;4925448;29;20043;-77
2023/10/21 10:01:24;;;;;;;13.07;8.50;;;;;;;13.10;100.00;99212.16;4927013;28;20489;-78
2023/10/21 10:03:52;;;;;;;12.13;9.27;;;;;;;13.14;100.00;99216.47;4910822;29;20061;-77
2023/10/21 10:06:20;;;;;;;11.10;8.43;;;;;;;13.16;100.00;99211.97;4916742;29;20055;-76
2023/10/21 10:08:54;;;;;;;13.55;8.82;;;;;;;13.16;100.00;99211.97;4863727;29;20059;-77
2023/10/21 10:11:26;;;;;;;14.25;9.02;;;;;;;13.17;100.00;99218.97;4947266;29;20062;-78
2023/10/21 10:13:54;;;;;;;10.80;8.27;;;;;;;13.19;100.00;99217.16;4929155;28;20507;-78
2023/10/21 10:16:24;;;;;;;11.55;9.20;;;;;;;13.24;100.00;99220.50;4909464;28;20046;-77
2023/10/21 10:18:55;;;;;;;12.00;8.82;;;;;;;13.29;100.00;99222.97;4919826;29;20055;-77
2023/10/21 10:21:23;;;;;;;15.65;9.07;;;;;;;13.33;100.00;99228.16;4894041;29;20054;-77
2023/10/21 10:23:55;;;;;;;11.43;8.25;;;;;;;13.37;100.00;99228.94;4874031;29;20055;-77
2023/10/21 10:26:37;;;;;;;11.57;7.80;;;;;;;13.39;100.00;99232.38;4921733;29;20056;-77
2023/10/21 10:29:26;;;;;;;11.02;6.55;;;;;;;13.40;100.00;99237.63;4930710;29;20054;-77
2023/10/21 10:32:17;;;;;;;12.30;7.32;;;;;;;13.38;100.00;99234.19;4959998;28;20066;-77
2023/10/21 10:34:55;;;;;;;8.38;5.60;;;;;;;13.40;100.00;99242.03;4927093;29;20679;-77
2023/10/21 10:37:34;;;;;;;6.82;6.03;;;;;;;13.39;100.00;99238.53;4916048;29;20059;-77
2023/10/21 10:40:18;;;;;;;13.70;6.50;;;;;;;13.42;100.00;99240.19;4891471;29;20416;-78
2023/10/21 10:42:45;;;;;;;8.73;5.55;;;;;;;13.45;100.00;99250.69;4923742;28;20055;-77
2023/10/21 10:45:13;;;;;;;8.57;5.40;;;;;;;13.47;100.00;99254.16;4938082;28;20054;-77
2023/10/21 10:47:40;;;;;;;7.70;5.57;;;;;;;13.52;100.00;99251.38;4925750;28;20476;-78
2023/10/21 10:50:16;;;;;;;11.50;4.95;;;;;;;13.54;100.00;99257.47;4909490;29;20058;-77
2023/10/21 10:52:46;;;;;;;10.20;5.47;;;;;;;13.56;100.00;99256.47;4920823;29;20051;-77
2023/10/21 10:55:14;;;;;;;6.95;5.07;;;;;;;13.58;100.00;99257.28;4887337;29;20047;-77
2023/10/21 10:57:43;;;;;;;6.15;4.50;;;;;;;13.58;100.00;99259.94;4918622;28;20464;-76
2023/10/21 11:00:20;;;;;;;8.23;5.07;;;;;;;13.57;100.00;99265.28;4904025;29;20062;-76
2023/10/21 11:02:49;;;;;;;5.15;2.92;;;;;;;13.54;100.00;99263.63;4946035;28;20038;-77
2023/10/21 11:05:20;;;;;;;5.57;1.92;;;;;;;13.52;100.00;99268.09;4945276;28;20501;-77
2023/10/21 11:07:50;;;;;;;;;;;;;;;13.50;100.00;99275.22;4911412;29;20047;-76
2023/10/21 11:10:19;;;;;;;3.58;1.80;;;;;;;13.48;100.00;99270.88;4912246;28;19922;-77
2023/10/21 11:12:49;;;;;;;2.58;1.73;;;;;;;13.45;100.00;99272.72;4896223;28;21347;-76
2023/10/21 11:15:19;;;;;;;3.47;1.25;;;;;;;13.44;100.00;99273.66;4931975;29;20061;-77
2023/10/21 11:17:47;;;;;;;1.75;1.20;;;;;;;13.44;100.00;99278.09;4920723;29;20055;-78
2023/10/21 11:20:15;;;;;;;2.53;1.48;;;;;;;13.47;100.00;99277.97;4919085;29;20066;-77
2023/10/21 11:22:42;;;;;;;2.50;1.30;;;;;;;13.49;100.00;99291.16;4897703;28;20473;-77